Time;durP1;ratioP1;P1;durP2;ratioP2;P2;SDS_P1;SDS_P2;PMS_P1;PMS_P2;Temp;Humidity;BMP_temperature;BMP_pressure;BME280_temperature;BME280_humidity;BME280_pressure;Samples;Min_cycle;Max_cycle;Signal;HPM_P1;HPM_P2
2023/12/19 00:01:52;;;;;;;488.03;467.33;;;5.10;99.90;;;;;;5075284;28;20452;-82
2023/12/19 00:04:18;;;;;;;485.47;464.67;;;5.10;99.90;;;;;;5073044;28;20455;-82
2023/12/19 00:06:45;;;;;;;501.23;478.70;;;5.10;99.90;;;;;;5075442;28;20525;-82
2023/12/19 00:09:13;;;;;;;521.90;496.00;;;5.20;99.90;;;;;;5075328;28;21010;-82
2023/12/19 00:11:40;;;;;;;543.93;514.47;;;5.20;99.90;;;;;;5075263;28;20446;-82
2023/12/19 00:14:08;;;;;;;544.70;512.87;;;5.30;99.90;;;;;;5072694;28;20466;-82
2023/12/19 00:16:37;;;;;;;560.47;526.47;;;5.40;99.90;;;;;;5075551;28;20435;-82
2023/12/19 00:19:07;;;;;;;568.37;532.67;;;5.40;99.90;;;;;;5075468;28;20438;-81
2023/12/19 00:21:34;;;;;;;562.83;528.30;;;5.50;99.90;;;;;;5075180;28;20448;-82
2023/12/19 00:24:01;;;;;;;565.90;530.43;;;5.50;99.90;;;;;;5072582;28;20479;-81
2023/12/19 00:26:28;;;;;;;560.70;526.00;;;5.40;99.90;;;;;;5074833;28;20447;-82
2023/12/19 00:28:55;;;;;;;568.07;533.07;;;5.50;99.90;;;;;;5075186;28;20482;-82
2023/12/19 00:31:23;;;;;;;578.03;542.23;;;5.50;99.90;;;;;;5075172;28;20521;-82
2023/12/19 00:33:50;;;;;;;559.80;525.20;;;5.50;99.90;;;;;;5072341;28;20963;-82
2023/12/19 00:36:21;;;;;;;545.13;513.80;;;5.50;99.90;;;;;;5074817;28;20550;-82
2023/12/19 00:38:48;;;;;;;548.40;517.43;;;5.40;99.90;;;;;;5074719;28;20509;-82
2023/12/19 00:41:16;;;;;;;545.27;514.17;;;5.40;99.90;;;;;;5074998;28;20530;-82
2023/12/19 00:43:43;;;;;;;539.87;510.00;;;5.40;99.90;;;;;;5072062;28;20451;-82
2023/12/19 00:46:10;;;;;;;544.33;513.93;;;5.40;99.90;;;;;;5074069;28;20456;-82
2023/12/19 00:48:39;;;;;;;545.70;515.80;;;5.40;99.90;;;;;;5074811;28;20544;-81
2023/12/19 00:51:10;;;;;;;533.40;505.10;;;5.50;99.90;;;;;;5074851;28;20447;-81
2023/12/19 00:53:36;;;;;;;535.33;505.33;;;5.50;99.90;;;;;;5072061;28;20449;-81
2023/12/19 00:56:07;;;;;;;529.83;500.40;;;5.50;99.90;;;;;;5074186;28;20446;-82
2023/12/19 00:58:34;;;;;;;534.60;505.10;;;5.50;99.90;;;;;;5074436;28;20898;-81
2023/12/19 01:01:01;;;;;;;541.90;510.00;;;5.60;99.90;;;;;;5074698;28;20450;-81
2023/12/19 01:03:27;;;;;;;546.97;514.93;;;5.60;99.90;;;;;;5072250;28;20457;-81
2023/12/19 01:05:56;;;;;;;551.13;517.37;;;5.70;99.90;;;;;;5073612;28;20950;-82
2023/12/19 01:08:22;;;;;;;552.27;516.77;;;5.80;99.90;;;;;;5074462;28;20480;-82
2023/12/19 01:10:49;;;;;;;539.47;506.47;;;5.80;99.90;;;;;;5074186;28;20973;-82
2023/12/19 01:13:16;;;;;;;535.93;503.67;;;5.90;99.90;;;;;;5072141;28;20453;-82
2023/12/19 01:15:43;;;;;;;531.50;499.47;;;5.90;99.90;;;;;;5073095;28;20460;-82
2023/12/19 01:18:10;;;;;;;535.97;504.57;;;5.90;99.90;;;;;;5074034;28;20450;-82
2023/12/19 01:20:36;;;;;;;525.23;496.43;;;5.90;99.90;;;;;;5074275;28;20458;-82
2023/12/19 01:23:05;;;;;;;520.77;492.57;;;5.90;99.90;;;;;;5072291;28;20462;-82
2023/12/19 01:25:31;;;;;;;521.23;493.43;;;5.90;99.90;;;;;;5072860;28;20792;-82
2023/12/19 01:27:58;;;;;;;511.80;484.80;;;5.90;99.90;;;;;;5073914;28;20488;-81
2023/12/19 01:30:25;;;;;;;515.90;489.30;;;5.90;99.90;;;;;;5074068;28;20476;-81
2023/12/19 01:32:52;;;;;;;512.97;486.30;;;6.00;99.90;;;;;;5072186;28;20465;-81
2023/12/19 01:35:19;;;;;;;510.03;484.00;;;6.00;99.90;;;;;;5072063;28;20457;-81
2023/12/19 01:37:45;;;;;;;507.70;482.10;;;6.00;99.90;;;;;;5074027;28;20454;-82
2023/12/19 01:40:14;;;;;;;503.43;478.53;;;5.90;99.90;;;;;;5073691;28;20452;-82
2023/12/19 01:42:41;;;;;;;505.83;480.70;;;6.00;99.90;;;;;;5072552;28;20465;-82
2023/12/19 01:45:10;;;;;;;521.07;493.97;;;5.90;99.90;;;;;;5072659;28;20455;-81
2023/12/19 01:47:40;;;;;;;519.60;492.10;;;6.00;99.90;;;;;;5073617;28;20457;-82
2023/12/19 01:50:08;;;;;;;523.77;495.47;;;6.00;99.90;;;;;;5073828;28;20535;-82
2023/12/19 01:52:36;;;;;;;522.17;494.40;;;6.10;99.90;;;;;;5072291;28;20453;-81
2023/12/19 01:55:03;;;;;;;517.07;489.73;;;6.10;99.90;;;;;;5072520;28;20453;-82
2023/12/19 01:57:32;;;;;;;519.10;492.30;;;6.10;99.90;;;;;;5073501;28;20461;-82
2023/12/19 01:59:59;;;;;;;527.20;500.37;;;6.10;99.90;;;;;;5073769;28;20454;-82
2023/12/19 02:02:26;;;;;;;528.93;501.20;;;6.10;99.90;;;;;;5072952;28;20530;-82
2023/12/19 02:04:56;;;;;;;519.60;492.67;;;6.10;99.90;;;;;;5071874;28;20451;-82
2023/12/19 02:07:23;;;;;;;521.07;494.23;;;6.20;99.90;;;;;;5073434;28;20447;-81
2023/12/19 02:09:50;;;;;;;511.53;485.37;;;6.20;99.90;;;;;;5073337;28;20472;-82
2023/12/19 02:12:17;;;;;;;517.20;490.70;;;6.20;99.90;;;;;;5072938;28;20554;-82
2023/12/19 02:14:45;;;;;;;509.13;482.70;;;6.20;99.90;;;;;;5071135;28;20461;-82
2023/12/19 02:17:12;;;;;;;504.67;479.20;;;6.20;99.90;;;;;;5073630;28;20459;-81
2023/12/19 02:19:44;;;;;;;500.53;475.90;;;6.20;99.90;;;;;;5073323;28;21026;-82
2023/12/19 02:22:11;;;;;;;502.57;478.10;;;6.20;99.90;;;;;;5072375;28;20460;-81
2023/12/19 02:24:39;;;;;;;497.57;473.37;;;6.20;99.90;;;;;;5071549;28;20816;-81
2023/12/19 02:27:07;;;;;;;497.30;472.90;;;6.20;99.90;;;;;;5073197;28;20448;-81
2023/12/19 02:29:34;;;;;;;495.07;470.77;;;6.20;99.90;;;;;;5073447;28;20821;-81
2023/12/19 02:32:01;;;;;;;498.90;473.97;;;6.10;99.90;;;;;;5072915;28;20455;-81
2023/12/19 02:34:29;;;;;;;497.17;472.20;;;6.10;99.90;;;;;;5070969;28;20450;-81
2023/12/19 02:36:56;;;;;;;501.07;475.80;;;6.20;99.90;;;;;;5073426;28;20486;-81
2023/12/19 02:39:23;;;;;;;501.73;475.77;;;6.10;99.90;;;;;;5073247;28;20550;-81
2023/12/19 02:41:51;;;;;;;500.47;474.50;;;6.10;99.90;;;;;;5072949;28;20460;-81
2023/12/19 02:44:18;;;;;;;507.33;480.40;;;6.10;99.90;;;;;;5070756;28;20447;-81
2023/12/19 02:46:45;;;;;;;501.40;474.63;;;6.20;99.90;;;;;;5074293;28;20454;-82
2023/12/19 02:49:11;;;;;;;503.03;476.53;;;6.20;99.90;;;;;;5077126;28;20478;-82
2023/12/19 02:51:38;;;;;;;501.70;475.93;;;6.20;99.90;;;;;;5076867;28;20454;-82
2023/12/19 02:54:05;;;;;;;501.13;475.67;;;6.20;99.90;;;;;;5074427;28;20458;-83
2023/12/19 02:56:34;;;;;;;489.93;465.40;;;6.20;99.90;;;;;;5076955;28;20820;-82
2023/12/19 02:59:02;;;;;;;498.70;473.90;;;6.30;99.90;;;;;;5077041;28;20452;-82
2023/12/19 03:01:29;;;;;;;491.37;467.37;;;6.20;99.90;;;;;;5076583;28;20448;-83
2023/12/19 03:03:56;;;;;;;491.40;467.70;;;6.30;99.90;;;;;;5074446;28;20814;-82
2023/12/19 03:06:23;;;;;;;489.77;466.10;;;6.30;99.90;;;;;;5076639;28;20480;-82
2023/12/19 03:08:50;;;;;;;491.73;468.17;;;6.30;99.90;;;;;;5076433;28;20502;-83
2023/12/19 03:11:17;;;;;;;488.37;465.17;;;6.30;99.90;;;;;;5077225;28;20835;-82
2023/12/19 03:13:45;;;;;;;478.70;456.63;;;6.30;99.90;;;;;;5073909;28;20459;-82
2023/12/19 03:16:13;;;;;;;453.37;433.23;;;6.30;99.90;;;;;;5076019;28;20817;-82
2023/12/19 03:18:40;;;;;;;449.17;430.00;;;6.20;99.90;;;;;;5076378;28;20449;-82
2023/12/19 03:21:08;;;;;;;370.07;355.50;;;6.20;99.90;;;;;;5076668;28;20449;-82
2023/12/19 03:23:35;;;;;;;314.13;302.33;;;6.10;99.90;;;;;;5074078;28;20736;-82
2023/12/19 03:26:02;;;;;;;282.60;271.80;;;6.00;99.90;;;;;;5075881;28;20449;-81
2023/12/19 03:28:28;;;;;;;249.97;240.83;;;5.90;99.90;;;;;;5076547;28;20455;-81
2023/12/19 03:30:55;;;;;;;225.90;217.40;;;5.80;99.90;;;;;;5076084;28;20477;-81
2023/12/19 03:33:23;;;;;;;254.37;245.07;;;5.80;99.90;;;;;;5074240;28;20789;-81
2023/12/19 03:35:50;;;;;;;211.33;203.50;;;5.70;99.90;;;;;;5075407;28;20454;-81
2023/12/19 03:38:17;;;;;;;190.43;183.13;;;5.70;99.90;;;;;;5076323;28;20451;-81
2023/12/19 03:40:44;;;;;;;198.90;191.30;;;5.60;99.90;;;;;;5076254;28;20471;-80
2023/12/19 03:43:11;;;;;;;237.17;228.63;;;5.50;99.90;;;;;;5074216;28;20457;-81
2023/12/19 03:45:38;;;;;;;290.93;280.33;;;5.50;99.90;;;;;;5075368;28;20452;-80
2023/12/19 03:48:05;;;;;;;337.93;325.13;;;5.50;99.90;;;;;;5076240;28;20446;-81
2023/12/19 03:50:33;;;;;;;376.87;362.40;;;5.50;99.90;;;;;;5076144;28;20480;-82
2023/12/19 03:53:01;;;;;;;410.03;393.67;;;5.60;99.90;;;;;;5074402;28;20521;-80
2023/12/19 03:55:28;;;;;;;396.57;380.90;;;5.60;99.90;;;;;;5074706;28;20473;-80
2023/12/19 03:57:55;;;;;;;399.53;383.57;;;5.60;99.90;;;;;;5075316;28;20524;-81
2023/12/19 04:00:22;;;;;;;389.53;374.07;;;5.60;99.90;;;;;;5075907;28;20547;-81
2023/12/19 04:02:48;;;;;;;390.77;375.30;;;5.60;99.90;;;;;;5074639;28;20448;-81
2023/12/19 04:05:15;;;;;;;397.60;381.57;;;5.50;99.90;;;;;;5074690;28;20457;-81
2023/12/19 04:07:43;;;;;;;397.13;380.93;;;5.50;99.90;;;;;;5075807;28;20448;-81
2023/12/19 04:10:11;;;;;;;399.93;383.80;;;5.60;99.90;;;;;;5075726;28;20474;-81
2023/12/19 04:12:37;;;;;;;426.07;408.37;;;5.60;99.90;;;;;;5074250;28;20455;-81
2023/12/19 04:15:05;;;;;;;495.83;470.77;;;5.60;99.90;;;;;;5074294;28;20458;-81
2023/12/19 04:17:31;;;;;;;503.97;477.80;;;5.70;99.90;;;;;;5075567;28;20527;-81
2023/12/19 04:19:58;;;;;;;484.77;461.30;;;5.80;99.90;;;;;;5075604;28;20469;-81
2023/12/19 04:22:25;;;;;;;458.77;437.83;;;5.80;99.90;;;;;;5074817;28;20456;-81
2023/12/19 04:24:53;;;;;;;454.30;433.43;;;5.80;99.90;;;;;;5073560;28;20450;-80
2023/12/19 04:27:20;;;;;;;449.57;428.67;;;5.80;99.90;;;;;;5075121;28;20455;-81
2023/12/19 04:29:47;;;;;;;461.83;439.60;;;5.70;99.90;;;;;;5075292;28;20480;-80
2023/12/19 04:32:14;;;;;;;476.40;452.20;;;5.70;99.90;;;;;;5074778;28;20569;-81
2023/12/19 04:34:41;;;;;;;486.30;460.70;;;5.60;99.90;;;;;;5073357;28;20474;-81
2023/12/19 04:37:08;;;;;;;502.47;473.70;;;5.50;99.90;;;;;;5075230;28;20536;-81
2023/12/19 04:39:35;;;;;;;534.73;499.87;;;5.50;99.90;;;;;;5075155;28;20454;-81
2023/12/19 04:42:06;;;;;;;541.87;503.90;;;5.50;99.90;;;;;;5074281;28;20480;-82
2023/12/19 04:44:33;;;;;;;564.63;523.87;;;5.50;99.90;;;;;;5073150;28;20442;-81
2023/12/19 04:47:01;;;;;;;610.57;568.93;;;5.50;99.90;;;;;;5075053;28;20446;-81
2023/12/19 04:49:27;;;;;;;618.93;575.07;;;5.50;99.90;;;;;;5075596;28;20558;-81
2023/12/19 04:51:55;;;;;;;619.27;575.93;;;5.60;99.90;;;;;;5074106;28;20968;-81
2023/12/19 04:54:21;;;;;;;638.70;593.23;;;5.60;99.90;;;;;;5072596;28;20450;-81
2023/12/19 04:56:50;;;;;;;680.63;631.97;;;5.50;99.90;;;;;;5074623;28;20455;-81
2023/12/19 04:59:18;;;;;;;726.27;674.27;;;5.50;99.90;;;;;;5074491;28;20454;-81
2023/12/19 05:01:45;;;;;;;750.30;697.03;;;5.50;99.90;;;;;;5074377;28;20460;-81
2023/12/19 05:04:12;;;;;;;933.50;867.63;;;5.50;99.90;;;;;;5072447;28;20448;-81
2023/12/19 05:06:39;;;;;;;979.10;903.17;;;5.50;99.90;;;;;;5074626;28;20535;-81
2023/12/19 05:09:06;;;;;;;979.33;900.37;;;5.40;99.90;;;;;;5073586;28;20980;-84
2023/12/19 05:11:32;;;;;;;972.10;884.50;;;5.40;99.90;;;;;;5074510;28;20468;-84
2023/12/19 05:13:59;;;;;;;999.67;903.93;;;5.50;99.90;;;;;;5072250;28;20554;-84
2023/12/19 05:16:28;;;;;;;985.87;885.93;;;5.80;99.90;;;;;;5074681;28;20797;-85
2023/12/19 05:18:55;;;;;;;1014.30;910.70;;;5.90;99.90;;;;;;5074753;28;20457;-85
2023/12/19 05:21:22;;;;;;;1008.67;903.90;;;6.10;99.90;;;;;;5074108;28;20450;-85
2023/12/19 05:23:49;;;;;;;999.30;895.50;;;6.20;99.90;;;;;;5072523;28;20456;-85
2023/12/19 05:26:15;;;;;;;980.17;878.00;;;6.40;99.90;;;;;;5074186;28;20449;-81
2023/12/19 05:28:42;;;;;;;967.70;864.50;;;6.50;99.90;;;;;;5074652;28;20473;-82
2023/12/19 05:31:10;;;;;;;983.40;878.43;;;6.60;99.90;;;;;;5074088;28;20475;-81
2023/12/19 05:33:38;;;;;;;978.07;876.73;;;6.60;99.90;;;;;;5071887;28;20558;-82
2023/12/19 05:36:05;;;;;;;979.47;879.27;;;6.70;99.90;;;;;;5073663;28;20454;-81
2023/12/19 05:38:32;;;;;;;969.13;868.13;;;6.70;99.90;;;;;;5074058;28;20457;-82
2023/12/19 05:40:59;;;;;;;963.00;859.60;;;6.70;99.90;;;;;;5073907;28;20452;-82
2023/12/19 05:43:26;;;;;;;962.80;860.20;;;6.80;99.90;;;;;;5071832;28;20814;-82
2023/12/19 05:45:53;;;;;;;967.17;868.63;;;6.90;99.90;;;;;;5072967;28;20491;-83
2023/12/19 05:48:22;;;;;;;951.07;853.90;;;6.90;99.90;;;;;;5073901;28;20451;-82
2023/12/19 05:50:50;;;;;;;966.20;872.90;;;6.90;99.90;;;;;;5073809;28;20480;-82
2023/12/19 05:53:17;;;;;;;969.73;877.53;;;6.80;99.90;;;;;;5071520;28;20451;-83
2023/12/19 05:55:44;;;;;;;945.73;852.90;;;6.80;99.90;;;;;;5072920;28;20455;-82
2023/12/19 05:58:11;;;;;;;943.10;852.73;;;6.90;99.90;;;;;;5074739;28;20463;-86
2023/12/19 06:00:38;;;;;;;944.47;857.13;;;6.90;99.90;;;;;;5073445;28;20449;-84
2023/12/19 06:03:05;;;;;;;932.33;846.07;;;6.90;99.90;;;;;;5071883;28;20455;-85
2023/12/19 06:05:32;;;;;;;941.23;854.30;;;6.90;99.90;;;;;;5072820;28;20450;-85
2023/12/19 06:08:02;;;;;;;918.70;833.40;;;6.90;99.90;;;;;;5073508;28;20457;-85
2023/12/19 06:10:29;;;;;;;906.67;822.13;;;6.90;99.90;;;;;;5074008;28;20472;-86
2023/12/19 06:12:56;;;;;;;901.47;816.07;;;6.90;99.90;;;;;;5071610;28;20454;-86
2023/12/19 06:15:23;;;;;;;901.90;814.43;;;6.90;99.90;;;;;;5072135;28;20464;-85
2023/12/19 06:17:51;;;;;;;898.37;811.90;;;6.90;99.90;;;;;;5076073;28;20449;-82
2023/12/19 06:20:18;;;;;;;901.77;815.47;;;7.00;99.90;;;;;;5073902;28;20942;-86
2023/12/19 06:22:45;;;;;;;903.77;816.10;;;7.00;99.90;;;;;;5075886;28;20522;-82
2023/12/19 06:25:13;;;;;;;896.00;812.37;;;7.10;99.90;;;;;;5076245;28;20456;-83
2023/12/19 06:27:42;;;;;;;952.27;866.17;;;7.10;99.90;;;;;;5077313;28;20547;-83
2023/12/19 06:30:10;;;;;;;948.30;862.73;;;7.10;99.90;;;;;;5077166;28;20560;-83
2023/12/19 06:32:37;;;;;;;947.10;861.27;;;7.20;99.90;;;;;;5075689;28;20450;-83
2023/12/19 06:35:07;;;;;;;940.43;855.90;;;7.20;99.90;;;;;;5075453;28;20455;-83
2023/12/19 06:37:34;;;;;;;924.53;843.07;;;7.20;99.90;;;;;;5077594;28;20491;-83
2023/12/19 06:40:02;;;;;;;939.93;860.30;;;7.30;99.90;;;;;;5077093;28;20568;-83
2023/12/19 06:42:30;;;;;;;893.70;819.70;;;7.30;99.90;;;;;;5075994;28;20471;-83
2023/12/19 06:44:57;;;;;;;893.87;823.67;;;7.40;99.90;;;;;;5075394;28;20451;-82
2023/12/19 06:47:27;;;;;;;895.90;827.93;;;7.40;99.90;;;;;;5077974;28;20536;-83
2023/12/19 06:49:54;;;;;;;882.10;818.20;;;7.40;99.90;;;;;;5077131;28;20452;-82
2023/12/19 06:52:21;;;;;;;895.47;831.10;;;7.50;99.90;;;;;;5075927;28;20464;-82
2023/12/19 06:54:48;;;;;;;886.20;823.70;;;7.50;99.90;;;;;;5074778;28;20449;-83
2023/12/19 06:57:15;;;;;;;891.53;829.30;;;7.40;99.90;;;;;;5076772;28;20453;-83
2023/12/19 06:59:43;;;;;;;902.80;840.37;;;7.40;99.90;;;;;;5076748;28;20482;-83
2023/12/19 07:02:10;;;;;;;899.23;838.73;;;7.50;99.90;;;;;;5075816;28;20450;-82
2023/12/19 07:04:37;;;;;;;896.57;836.63;;;7.50;99.90;;;;;;5074227;28;20446;-82
2023/12/19 07:07:04;;;;;;;908.37;847.90;;;7.40;99.90;;;;;;5076578;28;20964;-82
2023/12/19 07:09:31;;;;;;;896.03;834.83;;;7.40;99.90;;;;;;5077516;28;20805;-82
2023/12/19 07:11:58;;;;;;;889.33;828.67;;;7.40;99.90;;;;;;5075699;28;20484;-83
2023/12/19 07:14:25;;;;;;;909.03;847.13;;;7.40;99.90;;;;;;5074108;28;20461;-83
2023/12/19 07:16:53;;;;;;;897.13;836.07;;;7.40;99.90;;;;;;5076685;28;20460;-83
2023/12/19 07:19:21;;;;;;;895.13;833.53;;;7.40;99.90;;;;;;5076653;28;20454;-82
2023/12/19 07:21:49;;;;;;;886.30;825.30;;;7.40;99.90;;;;;;5076309;28;21112;-83
2023/12/19 07:24:16;;;;;;;876.13;815.50;;;7.40;99.90;;;;;;5074023;28;20476;-83
2023/12/19 07:26:42;;;;;;;881.73;822.43;;;7.40;99.90;;;;;;5076229;28;20457;-82
2023/12/19 07:29:10;;;;;;;882.20;823.77;;;7.50;99.90;;;;;;5076516;28;20450;-83
2023/12/19 07:31:38;;;;;;;873.37;814.83;;;7.60;99.90;;;;;;5075627;28;20478;-82
2023/12/19 07:34:06;;;;;;;857.93;801.03;;;7.60;99.90;;;;;;5072930;28;20540;-82
2023/12/19 07:36:34;;;;;;;859.07;802.67;;;7.60;99.90;;;;;;5076354;28;20439;-82
2023/12/19 07:39:01;;;;;;;858.00;802.70;;;7.70;99.90;;;;;;5075986;28;20453;-82
2023/12/19 07:41:31;;;;;;;852.67;798.17;;;7.70;99.90;;;;;;5075956;28;20447;-82
2023/12/19 07:43:58;;;;;;;848.47;795.10;;;7.70;99.90;;;;;;5073627;28;20804;-82
2023/12/19 07:46:25;;;;;;;855.90;801.67;;;7.70;99.90;;;;;;5075980;28;20458;-82
2023/12/19 07:48:52;;;;;;;850.37;796.50;;;7.70;99.90;;;;;;5075977;28;20520;-82
2023/12/19 07:51:23;;;;;;;842.00;789.03;;;7.70;99.90;;;;;;5076013;28;20831;-82
2023/12/19 07:53:50;;;;;;;840.87;788.10;;;7.80;99.90;;;;;;5070743;28;20499;-82
2023/12/19 07:56:17;;;;;;;825.00;773.20;;;7.80;99.90;;;;;;5075358;28;20450;-82
2023/12/19 07:58:44;;;;;;;827.10;776.00;;;7.80;99.90;;;;;;5076341;28;20442;-82
2023/12/19 08:01:12;;;;;;;819.40;769.50;;;7.80;99.90;;;;;;5075876;28;20442;-82
2023/12/19 08:03:43;;;;;;;817.87;768.27;;;7.90;99.90;;;;;;5072011;28;20938;-82
2023/12/19 08:06:11;;;;;;;790.70;743.90;;;7.90;99.90;;;;;;5075167;28;20443;-82
2023/12/19 08:08:39;;;;;;;794.77;747.57;;;7.90;99.90;;;;;;5075492;28;20442;-82
2023/12/19 08:11:06;;;;;;;792.37;745.23;;;7.90;99.90;;;;;;5075433;28;20477;-82
2023/12/19 08:13:34;;;;;;;748.47;705.63;;;7.90;99.90;;;;;;5072781;28;20488;-82
2023/12/19 08:16:01;;;;;;;741.57;699.57;;;8.00;99.90;;;;;;5074206;28;20546;-81
2023/12/19 08:18:28;;;;;;;697.92;660.45;;;8.00;99.90;;;;;;5075444;28;20496;-77
2023/12/19 08:20:55;;;;;;;730.77;690.83;;;8.00;99.90;;;;;;5075246;28;20736;-80
2023/12/19 08:23:22;;;;;;;719.43;679.93;;;8.10;99.90;;;;;;5071856;28;20543;-80
2023/12/19 08:25:50;;;;;;;654.97;621.83;;;8.10;99.90;;;;;;5074237;28;20503;-80
2023/12/19 08:28:17;;;;;;;619.93;589.10;;;8.10;99.90;;;;;;5075284;28;20976;-80
2023/12/19 08:30:44;;;;;;;613.77;584.17;;;8.20;99.90;;;;;;5075260;28;20513;-80
2023/12/19 08:33:14;;;;;;;541.13;516.27;;;8.20;99.90;;;;;;5073477;28;20457;-80
2023/12/19 08:35:41;;;;;;;605.90;578.07;;;8.20;99.90;;;;;;5074095;28;20490;-79
2023/12/19 08:38:07;;;;;;;543.13;518.47;;;8.30;99.90;;;;;;5075189;28;20856;-84
2023/12/19 08:40:34;;;;;;;500.13;478.13;;;8.30;99.90;;;;;;5075104;28;20450;-83
2023/12/19 08:43:03;;;;;;;537.90;513.70;;;8.30;99.90;;;;;;5073723;28;20450;-84
2023/12/19 08:45:30;;;;;;;539.80;516.03;;;8.40;99.90;;;;;;5073074;28;20504;-84
2023/12/19 08:47:56;;;;;;;533.90;510.70;;;8.40;99.90;;;;;;5074646;28;20454;-84
2023/12/19 08:50:24;;;;;;;461.97;442.30;;;8.40;99.90;;;;;;5074518;28;20447;-84
2023/12/19 08:52:52;;;;;;;474.43;455.03;;;8.50;99.90;;;;;;5073396;28;20452;-83
2023/12/19 08:55:20;;;;;;;523.20;500.80;;;8.50;99.90;;;;;;5073479;28;20450;-84
2023/12/19 08:57:50;;;;;;;482.83;463.37;;;8.50;99.90;;;;;;5074935;28;20492;-84
2023/12/19 09:00:21;;;;;;;441.80;423.90;;;8.50;99.90;;;;;;5074747;28;20442;-83
2023/12/19 09:02:48;;;;;;;447.67;429.63;;;8.60;99.90;;;;;;5073018;28;20446;-84
2023/12/19 09:05:17;;;;;;;403.90;387.83;;;8.60;99.90;;;;;;5073201;28;20454;-84
2023/12/19 09:07:46;;;;;;;387.37;372.20;;;8.60;99.90;;;;;;5074247;28;20452;-83
2023/12/19 09:10:14;;;;;;;377.30;362.60;;;8.60;99.90;;;;;;5074201;28;20454;-84
2023/12/19 09:12:44;;;;;;;353.30;340.10;;;8.70;99.90;;;;;;5073002;28;20484;-85
2023/12/19 09:15:11;;;;;;;359.17;345.47;;;8.70;99.90;;;;;;5072934;28;20461;-83
2023/12/19 09:17:39;;;;;;;339.40;326.63;;;8.80;99.90;;;;;;5075028;28;20457;-84
2023/12/19 09:20:10;;;;;;;342.00;329.10;;;8.70;99.90;;;;;;5074402;28;20484;-83
2023/12/19 09:22:37;;;;;;;329.50;317.20;;;8.80;99.90;;;;;;5072841;28;20500;-83
2023/12/19 09:25:13;;;;;;;380.77;365.77;;;8.80;99.90;;;;;;5072742;28;20453;-83
2023/12/19 09:27:41;;;;;;;367.00;352.40;;;8.80;99.90;;;;;;5073058;28;20454;-84
2023/12/19 09:30:09;;;;;;;346.37;332.87;;;8.80;99.90;;;;;;5072673;28;20449;-82
2023/12/19 09:32:36;;;;;;;286.00;275.90;;;8.90;99.90;;;;;;5073345;28;21119;-83
2023/12/19 09:35:05;;;;;;;275.47;265.83;;;8.90;99.90;;;;;;5072723;28;20449;-83
2023/12/19 09:37:32;;;;;;;256.50;248.20;;;8.90;99.90;;;;;;5073800;28;20446;-84
2023/12/19 09:39:59;;;;;;;246.23;237.17;;;9.00;99.90;;;;;;5073927;28;20446;-82
2023/12/19 09:42:27;;;;;;;227.03;219.40;;;9.00;99.90;;;;;;5073419;28;20446;-82
2023/12/19 09:44:54;;;;;;;261.37;252.60;;;8.90;99.90;;;;;;5072379;28;20500;-82
2023/12/19 09:47:23;;;;;;;225.80;218.30;;;8.90;99.90;;;;;;5073861;28;20450;-82
2023/12/19 09:49:53;;;;;;;249.90;241.37;;;8.90;99.90;;;;;;5073829;28;20814;-82
2023/12/19 09:52:24;;;;;;;225.03;217.10;;;9.00;99.90;;;;;;5073060;28;20474;-81
2023/12/19 09:54:51;;;;;;;211.67;204.63;;;9.00;99.90;;;;;;5072460;28;20442;-81
2023/12/19 09:57:18;;;;;;;240.83;232.83;;;9.00;99.90;;;;;;5073551;28;20450;-82
2023/12/19 09:59:47;;;;;;;242.33;233.77;;;9.00;99.90;;;;;;5073883;28;20541;-80
2023/12/19 10:02:15;;;;;;;255.67;247.07;;;9.10;99.90;;;;;;5071803;28;20453;-80
2023/12/19 10:04:42;;;;;;;204.97;198.17;;;9.10;99.90;;;;;;5070063;28;20442;-79
2023/12/19 10:07:10;;;;;;;194.60;187.97;;;9.10;99.90;;;;;;5073745;28;20860;-79
2023/12/19 10:09:54;;;;;;;159.27;153.60;;;9.20;99.90;;;;;;5073628;28;20495;-79
2023/12/19 10:12:21;;;;;;;131.03;126.30;;;9.20;99.90;;;;;;5072479;28;20462;-79
2023/12/19 10:14:48;;;;;;;121.60;117.10;;;9.20;99.90;;;;;;5071324;28;20466;-78
2023/12/19 10:17:17;;;;;;;123.87;119.33;;;9.30;99.90;;;;;;5073530;28;20461;-78
2023/12/19 10:19:44;;;;;;;99.03;95.33;;;9.30;99.90;;;;;;5073433;28;20456;-78
2023/12/19 10:22:14;;;;;;;76.63;73.63;;;9.30;99.90;;;;;;5072875;28;20817;-79
2023/12/19 10:24:41;;;;;;;91.53;87.93;;;9.30;99.90;;;;;;5071371;28;20465;-79
2023/12/19 10:27:10;;;;;;;83.47;80.20;;;9.40;99.90;;;;;;5073502;28;20801;-78
2023/12/19 10:29:37;;;;;;;62.60;60.20;;;9.40;99.90;;;;;;5073248;28;20451;-79
2023/12/19 10:32:16;;;;;;;49.03;46.83;;;9.40;99.90;;;;;;5072636;28;20568;-79
2023/12/19 10:34:43;;;;;;;41.80;40.00;;;9.50;99.90;;;;;;5071122;28;20458;-78
2023/12/19 10:37:12;;;;;;;38.10;35.30;;;9.50;99.90;;;;;;5073179;28;20446;-79
2023/12/19 10:39:39;;;;;;;40.03;37.87;;;9.50;99.90;;;;;;5073435;28;20511;-79
2023/12/19 10:42:10;;;;;;;34.80;32.80;;;9.60;99.90;;;;;;5072508;28;20454;-78
2023/12/19 10:44:39;;;;;;;25.60;23.40;;;9.60;99.90;;;;;;5071127;28;20453;-79
2023/12/19 10:47:07;;;;;;;33.70;31.40;;;9.60;99.90;;;;;;5073085;28;20500;-78
2023/12/19 10:49:34;;;;;;;25.37;23.77;;;9.70;99.90;;;;;;5073071;28;20455;-79
2023/12/19 10:52:06;;;;;;;23.20;21.37;;;9.70;99.90;;;;;;5072341;28;20478;-78
2023/12/19 10:54:35;;;;;;;20.03;18.60;;;9.70;99.90;;;;;;5070400;28;20454;-78
2023/12/19 10:57:10;;;;;;;14.70;13.70;;;9.60;99.90;;;;;;5073295;28;20454;-78
2023/12/19 10:59:48;;;;;;;14.17;13.07;;;9.70;99.90;;;;;;5073338;28;20438;-78
2023/12/19 11:02:29;;;;;;;11.40;10.30;;;9.70;99.90;;;;;;5072377;28;20430;-78
2023/12/19 11:05:05;;;;;;;17.63;15.97;;;9.70;99.90;;;;;;5070823;28;20454;-78
2023/12/19 11:07:35;;;;;;;14.40;13.03;;;9.70;99.90;;;;;;5073454;28;20442;-78
2023/12/19 11:10:05;;;;;;;14.37;13.13;;;9.60;99.90;;;;;;5076546;28;20450;-78
2023/12/19 11:12:33;;;;;;;14.17;12.87;;;9.60;99.90;;;;;;5075376;28;20470;-78
2023/12/19 11:15:02;;;;;;;15.53;14.30;;;9.60;99.90;;;;;;5074732;28;20454;-78
2023/12/19 11:17:34;;;;;;;22.30;21.10;;;9.50;99.90;;;;;;5076663;28;20485;-78
2023/12/19 11:20:06;;;;;;;24.03;22.80;;;9.40;99.90;;;;;;5076426;28;20438;-79
2023/12/19 11:22:41;;;;;;;35.53;33.37;;;9.20;99.90;;;;;;5075584;28;20770;-79
2023/12/19 11:25:22;;;;;;;62.13;59.53;;;9.10;99.90;;;;;;5074938;28;20450;-78
2023/12/19 11:27:55;;;;;;;82.53;79.03;;;9.10;99.90;;;;;;5076571;28;20438;-79
2023/12/19 11:30:36;;;;;;;93.13;89.10;;;9.00;99.90;;;;;;5077368;28;20438;-79
2023/12/19 11:33:04;;;;;;;81.50;78.37;;;8.90;99.90;;;;;;5073730;28;20492;-78
2023/12/19 11:35:32;;;;;;;114.40;109.57;;;8.90;99.90;;;;;;5074799;28;20451;-78
2023/12/19 11:38:25;;;;;;;129.57;124.87;;;8.90;99.90;;;;;;5076017;28;20450;-78
2023/12/19 11:40:53;;;;;;;120.10;115.80;;;8.90;99.90;;;;;;5076058;28;20918;-78
2023/12/19 11:43:54;;;;;;;137.37;132.07;;;8.90;99.90;;;;;;5073516;28;20792;-79
2023/12/19 11:46:25;;;;;;;152.93;147.57;;;8.90;99.90;;;;;;5076375;28;20445;-78
2023/12/19 11:48:55;;;;;;;158.10;152.37;;;8.80;99.90;;;;;;5076284;28;20457;-78
2023/12/19 11:51:44;;;;;;;159.13;153.27;;;8.80;99.90;;;;;;5075666;28;20451;-79
2023/12/19 11:54:13;;;;;;;159.73;153.87;;;8.80;99.90;;;;;;5073273;28;20496;-78
2023/12/19 11:56:40;;;;;;;163.10;156.90;;;8.80;99.90;;;;;;5076043;28;20814;-78
2023/12/19 11:59:08;;;;;;;171.50;165.50;;;8.80;99.90;;;;;;5075671;28;20942;-78
2023/12/19 12:01:40;;;;;;;190.63;183.73;;;8.80;99.90;;;;;;5075633;28;20450;-78
2023/12/19 12:04:08;;;;;;;216.43;208.67;;;8.80;99.90;;;;;;5073101;28;20481;-77
2023/12/19 12:06:37;;;;;;;235.43;226.57;;;8.90;99.90;;;;;;5075728;28;20503;-78
2023/12/19 12:09:05;;;;;;;255.87;246.13;;;8.80;99.90;;;;;;5075731;28;20483;-78
2023/12/19 12:11:51;;;;;;;287.33;276.37;;;8.80;99.90;;;;;;5075067;28;20450;-78
2023/12/19 12:14:18;;;;;;;286.00;275.23;;;8.80;99.90;;;;;;5072845;28;20856;-78
2023/12/19 12:16:46;;;;;;;289.23;278.23;;;8.80;99.90;;;;;;5075688;28;20434;-78
2023/12/19 12:19:14;;;;;;;267.87;257.40;;;8.80;99.90;;;;;;5075089;28;20457;-78
2023/12/19 12:21:45;;;;;;;250.80;241.70;;;8.80;99.90;;;;;;5075578;28;20987;-78
2023/12/19 12:24:20;;;;;;;218.17;210.57;;;8.80;99.90;;;;;;5072753;28;20814;-78